Time,TemperatureF,DewpointF,PressureIn,WindDirection,WindDirectionDegrees,WindSpeedMPH,WindSpeedGustMPH,Humidity,HourlyPrecipIn,Conditions,Clouds,dailyrainin,SolarRadiationWatts/m^2,SoftwareType,DateUTC
2013-10-13 00:01:00,40.3,-99.9,30.19,WNW,285,0.0,0.0,81,0.00,,,0.00,0.003,,2013-10-13 05:01:00,
2013-10-13 00:11:00,39.8,-99.9,30.19,ESE,110,0.0,0.0,85,0.00,,,0.00,0.003,,2013-10-13 05:11:00,
2013-10-13 00:21:00,39.4,-99.9,30.19,WSW,241,2.0,3.8,84,0.00,,,0.00,0,,2013-10-13 05:21:00,
2013-10-13 00:31:00,39.3,-99.9,30.19,SSE,155,0.0,0.0,84,0.00,,,0.00,0,,2013-10-13 05:31:00,
2013-10-13 00:41:00,39.2,-99.9,30.20,South,182,1.0,2.1,83,0.00,,,0.00,0.003,,2013-10-13 05:41:00,
2013-10-13 00:51:00,39.2,-99.9,30.20,SSW,192,0.0,0.0,82,0.00,,,0.00,0.003,,2013-10-13 05:51:00,
2013-10-13 01:01:00,39.0,-99.9,30.20,SSE,167,0.0,2.1,83,0.00,,,0.00,0.003,,2013-10-13 06:01:00,
2013-10-13 01:11:00,38.7,-99.9,30.21,SSE,153,0.0,2.1,84,0.00,,,0.00,0.003,,2013-10-13 06:11:00,
2013-10-13 01:21:00,38.3,-99.9,30.21,SE,126,0.0,0.0,84,0.00,,,0.00,0.024,,2013-10-13 06:21:00,
2013-10-13 01:31:00,38.1,-99.9,30.22,SSE,154,1.0,2.1,84,0.00,,,0.00,0.01,,2013-10-13 06:31:00,
2013-10-13 01:41:00,38.1,-99.9,30.22,SSE,153,2.0,3.8,85,0.00,,,0.00,0.007,,2013-10-13 06:41:00,
2013-10-13 01:51:00,38.4,-99.9,30.23,SE,141,1.0,2.1,85,0.00,,,0.00,0,,2013-10-13 06:51:00,
2013-10-13 02:01:00,38.7,-99.9,30.24,South,180,1.0,3.8,84,0.00,,,0.00,0,,2013-10-13 07:01:00,
2013-10-13 02:11:00,38.7,-99.9,30.24,SSW,192,1.0,3.8,84,0.00,,,0.00,0.01,,2013-10-13 07:11:00,
2013-10-13 02:21:00,38.5,-99.9,30.25,South,174,1.0,2.1,85,0.00,,,0.00,0.003,,2013-10-13 07:21:00,
2013-10-13 02:31:00,38.3,-99.9,30.25,SSW,192,0.0,2.1,86,0.00,,,0.00,0.017,,2013-10-13 07:31:00,
2013-10-13 02:41:00,38.6,-99.9,30.25,SSE,154,1.0,3.8,84,0.00,,,0.00,0.037,,2013-10-13 07:41:00,
2013-10-13 02:51:00,38.5,-99.9,30.25,South,183,1.0,2.1,84,0.00,,,0.00,0.027,,2013-10-13 07:51:00,
2013-10-13 03:01:00,38.5,-99.9,30.25,South,181,1.0,3.8,84,0.00,,,0.00,0,,2013-10-13 08:01:00,
2013-10-13 03:11:00,38.4,-99.9,30.25,WSW,243,0.0,0.0,84,0.00,,,0.00,0.02,,2013-10-13 08:11:00,
2013-10-13 03:21:00,37.9,-99.9,30.26,SSW,194,1.0,3.8,85,0.00,,,0.00,0.03,,2013-10-13 08:21:00,
2013-10-13 03:31:00,37.6,-99.9,30.26,SE,136,0.0,0.0,87,0.00,,,0.00,0.014,,2013-10-13 08:31:00,
2013-10-13 03:41:00,37.1,-99.9,30.26,SSE,148,0.0,0.0,88,0.00,,,0.00,0.007,,2013-10-13 08:41:00,
2013-10-13 03:51:00,36.8,-99.9,30.27,SE,140,0.0,0.0,89,0.00,,,0.00,0.044,,2013-10-13 08:51:00,
2013-10-13 04:01:00,36.8,-99.9,30.27,SSE,162,0.0,0.0,89,0.00,,,0.00,0.01,,2013-10-13 09:01:00,
2013-10-13 04:11:00,36.8,-99.9,30.27,ESE,104,0.0,0.0,90,0.00,,,0.00,0,,2013-10-13 09:11:00,
2013-10-13 04:21:00,36.4,-99.9,30.27,SSE,152,0.0,0.0,89,0.00,,,0.00,0.017,,2013-10-13 09:21:00,
2013-10-13 04:31:00,36.3,-99.9,30.27,SE,133,0.0,0.0,90,0.00,,,0.00,0.007,,2013-10-13 09:31:00,
2013-10-13 04:41:00,36.3,-99.9,30.27,East,81,0.0,0.0,89,0.00,,,0.00,0.014,,2013-10-13 09:41:00,
2013-10-13 04:51:00,35.7,-99.9,30.27,East,81,0.0,0.0,91,0.00,,,0.00,0.007,,2013-10-13 09:51:00,
2013-10-13 05:01:00,34.8,-99.9,30.28,East,81,0.0,0.0,93,0.00,,,0.00,0.047,,2013-10-13 10:01:00,
2013-10-13 05:11:00,34.4,-99.9,30.28,ENE,58,0.0,0.0,94,0.00,,,0.00,0.014,,2013-10-13 10:11:00,
2013-10-13 05:21:00,33.9,-99.9,30.29,SE,137,0.0,0.0,95,0.00,,,0.00,0.01,,2013-10-13 10:21:00,
2013-10-13 05:31:00,33.5,-99.9,30.29,SW,227,0.0,0.0,95,0.00,,,0.00,0.024,,2013-10-13 10:31:00,
2013-10-13 05:41:00,33.2,-99.9,30.29,SW,227,0.0,0.0,95,0.00,,,0.00,0.024,,2013-10-13 10:41:00,
2013-10-13 05:51:00,32.8,-99.9,30.29,SW,227,0.0,0.0,96,0.00,,,0.00,0.044,,2013-10-13 10:51:00,
2013-10-13 06:01:00,32.6,-99.9,30.29,SW,227,0.0,0.0,96,0.00,,,0.00,0.064,,2013-10-13 11:01:00,
2013-10-13 06:11:00,32.3,-99.9,30.30,SW,226,0.0,0.0,96,0.00,,,0.00,0.054,,2013-10-13 11:11:00,
2013-10-13 06:21:00,32.1,-99.9,30.30,SW,232,0.0,0.0,96,0.00,,,0.00,0.139,,2013-10-13 11:21:00,
2013-10-13 06:31:00,31.9,-99.9,30.30,SW,229,0.0,0.0,96,0.00,,,0.00,0.112,,2013-10-13 11:31:00,
2013-10-13 06:41:00,31.4,-99.9,30.31,SW,229,0.0,0.0,96,0.00,,,0.00,0.136,,2013-10-13 11:41:00,
2013-10-13 06:51:00,31.2,-99.9,30.31,WSW,244,0.0,0.0,97,0.00,,,0.00,0.119,,2013-10-13 11:51:00,
2013-10-13 07:01:00,31.7,-99.9,30.31,WSW,246,0.0,0.0,97,0.00,,,0.00,0.112,,2013-10-13 12:01:00,
2013-10-13 07:11:00,31.2,-99.9,30.32,WSW,247,0.0,0.0,97,0.00,,,0.00,0.139,,2013-10-13 12:11:00,
2013-10-13 07:21:00,30.8,-99.9,30.31,NE,38,0.0,0.0,97,0.00,,,0.00,0.203,,2013-10-13 12:21:00,
2013-10-13 07:31:00,30.8,-99.9,30.32,NE,38,0.0,0.0,97,0.00,,,0.00,0.61,,2013-10-13 12:31:00,
2013-10-13 07:41:00,30.7,-99.9,30.32,NE,38,0.0,0.0,97,0.00,,,0.00,2.613,,2013-10-13 12:41:00,
2013-10-13 07:51:00,30.3,-99.9,30.32,WSW,240,0.0,0.0,97,0.00,,,0.00,6.747,,2013-10-13 12:51:00,
2013-10-13 08:01:00,30.6,-99.9,30.33,SW,231,0.0,0.0,97,0.00,,,0.00,12.14,,2013-10-13 13:01:00,
2013-10-13 08:11:00,30.5,-99.9,30.33,SSW,208,0.0,0.0,97,0.00,,,0.00,17.65,,2013-10-13 13:11:00,
2013-10-13 08:21:00,30.6,-99.9,30.33,SW,236,0.0,0.0,97,0.00,,,0.00,23.74,,2013-10-13 13:21:00,
2013-10-13 08:31:00,31.0,-99.9,30.33,WSW,242,0.0,0.0,97,0.00,,,0.00,51.22,,2013-10-13 13:31:00,
2013-10-13 08:41:00,32.3,-99.9,30.34,WSW,248,0.0,0.0,97,0.00,,,0.00,159.1,,2013-10-13 13:41:00,
2013-10-13 08:51:00,33.5,-99.9,30.34,WSW,258,0.0,0.0,95,0.00,,,0.00,191.5,,2013-10-13 13:51:00,
2013-10-13 09:01:00,35.5,-99.9,30.34,West,260,0.0,0.0,91,0.00,,,0.00,215.2,,2013-10-13 14:01:00,
2013-10-13 09:11:00,37.3,-99.9,30.35,WSW,238,0.0,0.0,84,0.00,,,0.00,243.2,,2013-10-13 14:11:00,
2013-10-13 09:21:00,37.4,-99.9,30.35,SW,233,0.0,0.0,86,0.00,,,0.00,228.1,,2013-10-13 14:21:00,
2013-10-13 09:31:00,40.4,-99.9,30.35,South,174,0.0,0.0,81,0.00,,,0.00,310.9,,2013-10-13 14:31:00,
2013-10-13 09:41:00,41.3,-99.9,30.35,SW,214,0.0,0.0,81,0.00,,,0.00,318.9,,2013-10-13 14:41:00,
2013-10-13 09:51:00,42.8,-99.9,30.35,SW,236,0.0,0.0,77,0.00,,,0.00,258.1,,2013-10-13 14:51:00,
2013-10-13 10:01:00,42.5,-99.9,30.35,West,263,0.0,0.0,79,0.00,,,0.00,256.4,,2013-10-13 15:01:00,
2013-10-13 10:11:00,43.9,-99.9,30.35,South,187,0.0,0.0,79,0.00,,,0.00,391.1,,2013-10-13 15:11:00,
2013-10-13 10:21:00,45.3,-99.9,30.35,WNW,285,0.0,0.0,75,0.00,,,0.00,376.6,,2013-10-13 15:21:00,
2013-10-13 10:31:00,46.5,-99.9,30.35,West,265,0.0,0.0,76,0.00,,,0.00,404.9,,2013-10-13 15:31:00,
2013-10-13 10:41:00,46.7,-99.9,30.36,WNW,302,0.0,0.0,75,0.00,,,0.00,427.2,,2013-10-13 15:41:00,
2013-10-13 10:51:00,48.5,-99.9,30.36,ENE,67,0.0,0.0,69,0.00,,,0.00,457.8,,2013-10-13 15:51:00,
2013-10-13 11:01:00,50.0,-99.9,30.36,WSW,242,0.0,0.0,66,0.00,,,0.00,585.4,,2013-10-13 16:01:00,
2013-10-13 11:11:00,51.6,-99.9,30.36,WNW,295,0.0,2.1,63,0.00,,,0.00,350,,2013-10-13 16:11:00,
2013-10-13 11:21:00,52.4,-99.9,30.36,SSW,213,2.0,3.8,58,0.00,,,0.00,465.3,,2013-10-13 16:21:00,
2013-10-13 11:31:00,51.9,-99.9,30.36,WSW,257,4.0,7.1,55,0.00,,,0.00,557.3,,2013-10-13 16:31:00,
2013-10-13 11:41:00,52.4,-99.9,30.36,WSW,255,2.0,3.8,53,0.00,,,0.00,418.7,,2013-10-13 16:41:00,
2013-10-13 11:51:00,53.2,-99.9,30.36,ENE,57,0.0,0.0,52,0.00,,,0.00,314.3,,2013-10-13 16:51:00,
2013-10-13 12:01:00,52.7,-99.9,30.36,WSW,240,3.0,5.4,52,0.00,,,0.00,399.3,,2013-10-13 17:01:00,
2013-10-13 12:11:00,55.8,-99.9,30.36,South,185,2.0,3.8,48,0.00,,,0.00,603.5,,2013-10-13 17:11:00,
2013-10-13 12:21:00,54.8,-99.9,30.36,West,270,4.0,5.4,46,0.00,,,0.00,521.7,,2013-10-13 17:21:00,
2013-10-13 12:31:00,55.0,-99.9,30.36,West,278,3.0,5.4,44,0.00,,,0.00,687.8,,2013-10-13 17:31:00,
2013-10-13 12:41:00,55.0,-99.9,30.36,SW,220,0.0,2.1,45,0.00,,,0.00,422.7,,2013-10-13 17:41:00,
2013-10-13 12:51:00,55.1,-99.9,30.36,WSW,245,4.0,5.4,44,0.00,,,0.00,403.7,,2013-10-13 17:51:00,
2013-10-13 13:01:00,55.5,-99.9,30.35,SSW,205,3.0,5.4,44,0.00,,,0.00,241.2,,2013-10-13 18:01:00,
2013-10-13 13:11:00,55.3,-99.9,30.35,SW,218,3.0,3.8,46,0.00,,,0.00,324.3,,2013-10-13 18:11:00,
2013-10-13 13:21:00,55.5,-99.9,30.35,WSW,257,3.0,7.1,42,0.00,,,0.00,452.3,,2013-10-13 18:21:00,
2013-10-13 13:31:00,56.2,-99.9,30.35,SW,234,6.0,7.1,43,0.00,,,0.00,518.6,,2013-10-13 18:31:00,
2013-10-13 13:41:00,56.6,-99.9,30.34,South,173,3.0,5.4,43,0.00,,,0.00,346.2,,2013-10-13 18:41:00,
2013-10-13 13:51:00,56.0,-99.9,30.34,South,181,2.0,3.8,43,0.00,,,0.00,420.2,,2013-10-13 18:51:00,
2013-10-13 14:01:00,56.2,-99.9,30.34,SW,230,5.0,7.1,47,0.00,,,0.00,319.4,,2013-10-13 19:01:00,
2013-10-13 14:11:00,56.6,-99.9,30.33,South,181,2.0,3.8,42,0.00,,,0.00,297,,2013-10-13 19:11:00,
2013-10-13 14:21:00,56.1,-99.9,30.33,SW,227,5.0,7.1,44,0.00,,,0.00,233.8,,2013-10-13 19:21:00,
2013-10-13 14:31:00,55.6,-99.9,30.33,SW,217,2.0,5.4,43,0.00,,,0.00,237.2,,2013-10-13 19:31:00,
2013-10-13 14:41:00,56.0,-99.9,30.33,SSW,209,3.0,5.4,44,0.00,,,0.00,224.2,,2013-10-13 19:41:00,
2013-10-13 14:51:00,55.4,-99.9,30.33,SE,132,2.0,3.8,43,0.00,,,0.00,189.4,,2013-10-13 19:51:00,
2013-10-13 15:01:00,56.2,-99.9,30.32,SSW,193,0.0,2.1,42,0.00,,,0.00,168.8,,2013-10-13 20:01:00,
2013-10-13 15:11:00,56.7,-99.9,30.32,SSE,168,0.0,0.0,43,0.00,,,0.00,182.3,,2013-10-13 20:11:00,
2013-10-13 15:21:00,56.5,-99.9,30.32,SW,228,1.0,3.8,38,0.00,,,0.00,230.3,,2013-10-13 20:21:00,
2013-10-13 15:31:00,57.3,-99.9,30.32,South,186,0.0,2.1,40,0.00,,,0.00,182.5,,2013-10-13 20:31:00,
2013-10-13 15:41:00,56.7,-99.9,30.31,SE,124,2.0,3.8,37,0.00,,,0.00,188.2,,2013-10-13 20:41:00,
2013-10-13 15:51:00,57.3,-99.9,30.31,SE,139,1.0,3.8,39,0.00,,,0.00,194.6,,2013-10-13 20:51:00,
2013-10-13 16:01:00,57.2,-99.9,30.32,ESE,116,3.0,5.4,40,0.00,,,0.00,199.3,,2013-10-13 21:01:00,
2013-10-13 16:11:00,56.2,-99.9,30.32,SSE,156,2.0,3.8,44,0.00,,,0.00,146.8,,2013-10-13 21:11:00,
2013-10-13 16:21:00,56.0,-99.9,30.32,South,176,4.0,5.4,46,0.00,,,0.00,141.7,,2013-10-13 21:21:00,
2013-10-13 16:31:00,54.9,-99.9,30.32,SSE,166,4.0,7.1,51,0.00,,,0.00,88.8,,2013-10-13 21:31:00,
2013-10-13 16:41:00,54.5,-99.9,30.32,South,187,4.0,7.1,52,0.00,,,0.00,82.8,,2013-10-13 21:41:00,
2013-10-13 16:51:00,53.8,-99.9,30.32,SSE,168,2.0,5.4,53,0.00,,,0.00,71.28,,2013-10-13 21:51:00,
2013-10-13 17:01:00,53.3,-99.9,30.32,SSE,168,3.0,5.4,52,0.00,,,0.00,69.28,,2013-10-13 22:01:00,
2013-10-13 17:11:00,52.9,-99.9,30.32,South,169,2.0,5.4,53,0.00,,,0.00,38.34,,2013-10-13 22:11:00,
2013-10-13 17:21:00,52.8,-99.9,30.32,South,174,1.0,3.8,56,0.00,,,0.00,61.79,,2013-10-13 22:21:00,
2013-10-13 17:31:00,52.8,-99.9,30.31,SE,145,3.0,5.4,53,0.00,,,0.00,75.42,,2013-10-13 22:31:00,
2013-10-13 17:41:00,52.8,-99.9,30.31,SSW,212,0.0,2.1,56,0.00,,,0.00,40.35,,2013-10-13 22:41:00,
2013-10-13 17:51:00,52.5,-99.9,30.31,South,169,1.0,3.8,57,0.00,,,0.00,22.22,,2013-10-13 22:51:00,
2013-10-13 18:01:00,52.3,-99.9,30.31,South,186,0.0,0.0,59,0.00,,,0.00,12.82,,2013-10-13 23:01:00,
2013-10-13 18:11:00,52.0,-99.9,30.31,South,180,0.0,2.1,59,0.00,,,0.00,9.84,,2013-10-13 23:11:00,
2013-10-13 18:21:00,51.7,-99.9,30.31,SSW,196,1.0,3.8,60,0.00,,,0.00,9.02,,2013-10-13 23:21:00,
2013-10-13 18:31:00,51.5,-99.9,30.31,South,178,0.0,2.1,60,0.00,,,0.00,9.55,,2013-10-13 23:31:00,
2013-10-13 18:41:00,50.9,-99.9,30.30,SE,132,1.0,3.8,61,0.00,,,0.00,2.969,,2013-10-13 23:41:00,
2013-10-13 18:51:00,50.4,-99.9,30.30,SSE,152,0.0,2.1,59,0.00,,,0.00,1.164,,2013-10-13 23:51:00,
2013-10-13 19:01:00,50.2,-99.9,30.30,ESE,122,0.0,0.0,62,0.00,,,0.00,0.406,,2013-10-14 00:01:00,
2013-10-13 19:11:00,49.9,-99.9,30.30,SSW,205,0.0,0.0,66,0.00,,,0.00,0,,2013-10-14 00:11:00,
2013-10-13 19:21:00,49.2,-99.9,30.31,South,179,0.0,3.8,70,0.00,,,0.00,0,,2013-10-14 00:21:00,
2013-10-13 19:31:00,48.6,-99.9,30.30,South,169,0.0,0.0,74,0.00,,,0.00,0,,2013-10-14 00:31:00,
2013-10-13 19:41:00,48.2,-99.9,30.31,SSE,167,0.0,0.0,77,0.00,,,0.00,0,,2013-10-14 00:41:00,
2013-10-13 19:51:00,48.1,-99.9,30.31,SSE,155,0.0,0.0,77,0.00,,,0.00,0,,2013-10-14 00:51:00,
2013-10-13 20:01:00,48.1,-99.9,30.31,SSW,213,0.0,0.0,78,0.00,,,0.00,0,,2013-10-14 01:01:00,
2013-10-13 20:11:00,47.9,-99.9,30.32,SW,226,0.0,2.1,79,0.00,,,0.00,0,,2013-10-14 01:11:00,
2013-10-13 20:21:00,47.8,-99.9,30.32,SW,214,0.0,0.0,79,0.00,,,0.00,0,,2013-10-14 01:21:00,
2013-10-13 20:31:00,47.7,-99.9,30.32,SSW,213,0.0,2.1,80,0.00,,,0.00,0,,2013-10-14 01:31:00,
2013-10-13 20:41:00,47.5,-99.9,30.32,SSE,150,0.0,0.0,81,0.00,,,0.00,0,,2013-10-14 01:41:00,
2013-10-13 20:51:00,47.3,-99.9,30.32,East,96,0.0,0.0,83,0.00,,,0.00,0,,2013-10-14 01:51:00,
2013-10-13 21:01:00,47.1,-99.9,30.32,NE,50,0.0,0.0,87,0.00,,,0.00,0,,2013-10-14 02:01:00,
2013-10-13 21:11:00,46.9,-99.9,30.32,NNE,31,0.0,0.0,89,0.00,,,0.00,0,,2013-10-14 02:11:00,
2013-10-13 21:21:00,46.8,-99.9,30.32,NE,46,0.0,0.0,88,0.00,,,0.00,0,,2013-10-14 02:21:00,
2013-10-13 21:31:00,46.7,-99.9,30.32,NE,39,0.0,0.0,89,0.00,,,0.00,0,,2013-10-14 02:31:00,
2013-10-13 21:41:00,46.8,-99.9,30.32,NNW,344,0.0,0.0,89,0.00,,,0.00,0,,2013-10-14 02:41:00,
2013-10-13 21:51:00,46.9,-99.9,30.32,ENE,66,0.0,0.0,90,0.00,,,0.00,0,,2013-10-14 02:51:00,
2013-10-13 22:01:00,46.8,-99.9,30.33,NNE,26,0.0,0.0,87,0.00,,,0.00,0,,2013-10-14 03:01:00,
2013-10-13 22:11:00,47.2,-99.9,30.33,NNE,24,0.0,0.0,85,0.00,,,0.00,0,,2013-10-14 03:11:00,
2013-10-13 22:21:00,46.9,-99.9,30.33,ENE,70,0.0,2.1,90,0.00,,,0.00,0,,2013-10-14 03:21:00,
2013-10-13 22:31:00,46.7,-99.9,30.33,North,0,1.0,3.8,92,0.00,,,0.00,0,,2013-10-14 03:31:00,
2013-10-13 22:41:00,46.5,-99.9,30.33,NNE,13,0.0,0.0,91,0.00,,,0.00,0,,2013-10-14 03:41:00,
2013-10-13 22:51:00,46.2,-99.9,30.32,ESE,122,2.0,3.8,92,0.01,,,0.01,0,,2013-10-14 03:51:00,
2013-10-13 23:01:00,46.3,-99.9,30.33,ENE,68,0.0,2.1,91,0.01,,,0.01,0.003,,2013-10-14 04:01:00,
2013-10-13 23:11:00,46.2,-99.9,30.33,NE,50,0.0,2.1,91,0.01,,,0.01,0,,2013-10-14 04:11:00,
2013-10-13 23:21:00,45.9,-99.9,30.33,NNE,31,1.0,2.1,91,0.01,,,0.01,0,,2013-10-14 04:21:00,
2013-10-13 23:31:00,45.9,-99.9,30.33,NE,35,3.0,3.8,91,0.01,,,0.01,0,,2013-10-14 04:31:00,
2013-10-13 23:41:00,46.2,-99.9,30.33,ENE,77,0.0,0.0,90,0.01,,,0.01,0,,2013-10-14 04:41:00,
2013-10-13 23:51:00,46.1,-99.9,30.32,NE,42,2.0,3.8,91,0.00,,,0.01,0,,2013-10-14 04:51:00,